Historyczne dane pomiarowe

Dodano dane terminowe – wersja testowa.

Dane z okresu 1951-2019

Wersja bazy: 1.34 [2019-03-16, lista zmian], aktualizacja planowana na 2019-04-15

Dane meteo z obszaru Polski uzyskane na podstawie danych udostępnionych przez Instytut Meteorologii i Gospodarki Wodnej – Państwowy Instytut Badawczy.

 

Wybierz Datę:    

       

TemperaturaWilgotnośćWiatrCiśnienieOpadyŚniegCzas trwania zjawisk
 Stacja t tx tn tng RH VA  wxwx mslp ppp RRR   cm mm wxwxwxwxwxwxwx
1987-08-14 15.1 21.1 10.9 8.1 90.0- 7.0 2.0---- 7.5------------
1987-08-13 14.6 20.6 9.4 6.7 79.3- 5.0 0.3---- 0.0------------
1987-08-12 13.6 19.2 6.7 4.3 76.8- 4.0 1.3---- 0.0------------
1987-08-11 13.5 18.0 10.5 9.5 85.3- 5.3 2.0---- 0.6------------
1987-08-10 13.8 16.0 12.4 12.2 94.5- 8.0 0.7---- 6.4------------
1987-08-09 16.2 24.0 9.5 6.9 80.3- 3.7 1.3---- 12.6------------
1987-08-08 15.1 21.4 9.4 7.2 71.0- 4.0 2.0---- 0.0------------
1987-08-07 12.9 19.0 6.0 3.0 71.8- 4.3 1.3---- 0.0------------
1987-08-06 11.7 15.8 7.8 6.9 82.0- 7.0 4.0---- 0.0------------
1987-08-05 12.6 16.2 8.5 6.9 80.8- 5.7 2.0---- 2.2------------
1987-08-04 14.0 18.0 12.2 10.8 83.0- 5.7 2.3---- 1.3------------
1987-08-03 14.6 19.6 9.0 7.7 81.0- 5.3 0.7---- 1.7------------
1987-08-02 13.6 17.8 10.5 10.0 85.8- 6.7 2.7---- 2.0------------
1987-08-01 15.2 23.0 12.5 12.4 86.8- 6.3 2.3---- 10.9------------
1987-07-31 15.4 18.8 12.4 11.0 85.5- 5.7 1.3---- 0.9------------
1987-07-30 17.6 24.2 13.7 12.0 77.3- 5.0 1.0---- 17.6------------
1987-07-29 15.4 19.6 10.7 9.0 82.5- 4.0 1.3---- 0.0------------
1987-07-28 14.1 14.9 12.4 12.4 86.8- 7.0 2.3---- 0.5------------
1987-07-27 13.4 19.0 9.5 8.6 77.8- 6.0 7.0---- 12.3------------
1987-07-26 13.5 18.9 10.0 9.5 75.3- 5.0 3.0---- 0.0------------
1987-07-25 15.3 21.6 13.9 12.2 89.3- 6.3 1.7---- 0.2------------
1987-07-24 20.1 24.8 13.0 11.6 75.5- 5.3 1.7---- 0.0------------
1987-07-23 20.0 25.4 12.5 11.0 80.8- 5.0 1.3---- 6.1------------
1987-07-22 18.7 24.2 12.1 11.4 81.5- 4.7 0.3---- 0.0------------
1987-07-21 16.9 21.5 13.4 11.6 88.3- 7.0 0.3---- 13.5------------
1987-07-20 19.1 23.8 15.6 15.2 81.5- 5.7 0.7---- 0.0------------
1987-07-19 18.3 22.0 15.0 15.2 82.3- 6.3 2.0---- 16.5------------
1987-07-18 19.2 22.2 16.8 14.9 87.3- 6.7 0.7---- 0.0------------
1987-07-17 21.4 29.4 16.5 14.6 75.5- 5.0 4.3---- 7.2------------
1987-07-16 20.4 27.2 12.9 11.0 75.5- 4.7 3.0---- 0.0------------
1987-07-15 18.5 24.5 10.0 7.3 67.5- 4.3 2.3---- 0.0------------
1987-07-14 16.2 22.2 5.9 3.0 68.5- 2.0 0.7---- 0.0------------
1987-07-13 16.6 20.8 10.4 7.4 71.8- 4.0 2.3---- 0.0------------
1987-07-12 19.3 25.9 14.2 13.2 79.8- 5.7 1.0---- 1.6------------
1987-07-11 17.3 25.4 9.4 6.4 78.5- 5.3 2.3---- 0.0------------
1987-07-10 15.2 19.6 10.0 8.8 66.0- 4.0 3.0---- 0.2------------
1987-07-09 16.0 20.2 13.5 14.0 84.3- 5.7 1.0---- 0.5------------
1987-07-08 19.6 25.9 15.2 12.0 85.5- 6.0 1.3---- 5.0------------
1987-07-07 20.4 27.5 11.5 8.5 68.3- 1.0 1.7---- 0.0------------
1987-07-06 18.7 25.0 8.0 6.9 69.8- 1.0 0.7---- 0.0------------
1987-07-05 16.2 22.2 7.7 7.4 71.5- 1.3 0.7---- 0.0------------
1987-07-04 17.8 22.5 13.8 13.3 74.5- 6.0 0.7---- 0.0------------
1987-07-03 18.8 24.2 12.0 10.5 73.3- 5.0 0.3---- 0.0------------
1987-07-02 19.7 23.5 14.5 13.0 77.5- 4.7 0.0---- 0.0------------
1987-07-01 24.6 31.9 18.0 16.4 80.5- 5.3 1.0---- 19.8------------
1987-06-30 24.9 30.5 16.6 14.5 74.3- 1.0 0.3---- 0.0------------
1987-06-29 21.7 28.3 14.0 11.2 82.8- 5.7 1.3---- 0.0------------
1987-06-28 18.6 23.0 14.7 12.1 86.0- 5.0 1.3---- 0.2------------
1987-06-27 18.4 22.2 15.0 15.0 78.8- 5.7 1.0---- 0.0------------
1987-06-26 17.0 22.8 10.0 7.1 77.3- 5.0 1.3---- 3.0------------
1987-06-25 14.0 17.0 10.4 10.2 86.5- 7.7 1.3---- 1.9------------
1987-06-24 15.0 19.2 11.0 10.0 83.8- 7.0 2.0---- 11.0------------
1987-06-23 15.6 19.9 10.6 8.1 77.8- 6.0 2.3---- 1.1------------
1987-06-22 14.4 18.0 11.5 11.0 85.5- 7.3 0.0---- 0.3------------
1987-06-21 15.8 20.1 10.0 7.9 86.3- 7.7 0.7---- 1.4------------
1987-06-20 15.5 21.6 7.5 5.5 72.5- 4.7 2.3---- 0.0------------
1987-06-19 13.3 18.6 7.9 7.4 75.3- 4.7 1.0---- 0.0------------
1987-06-18 10.9 14.9 6.9 5.3 85.0- 6.7 2.7---- 6.6------------
1987-06-17 13.1 16.4 9.0 9.0 69.5- 3.7 2.0---- 0.2------------
1987-06-16 11.3 16.5 8.9 9.0 87.0- 6.7 3.0---- 0.4------------
383.0 ms

 

Źródłem pochodzenia danych jest Instytut Meteorologii i Gospodarki Wodnej – Państwowy Instytut Badawczy. Dane Instytutu Meteorologii i Gospodarki Wodnej – Państwowego Instytutu Badawczego zostały przetworzone.

Dane źródłowe można odnaleźć na stronie https://dane.imgw.pl